createdAt,value
2022-09-28T00:00:16.974Z,70.33
2022-09-28T00:02:44.757Z,70.85
2022-09-28T00:05:13.153Z,70.42
2022-09-28T00:07:41.932Z,70.18
2022-09-28T00:10:10.240Z,70.83
2022-09-28T00:12:37.773Z,70.61
2022-09-28T00:15:05.851Z,70.15
2022-09-28T00:17:36.382Z,70.72
2022-09-28T00:20:06.000Z,70.68
2022-09-28T00:22:33.728Z,69.79
2022-09-28T00:25:01.416Z,70.62
2022-09-28T00:27:28.886Z,71.84
2022-09-28T00:29:56.968Z,70.82
2022-09-28T00:32:24.971Z,71.13
2022-09-28T00:34:53.834Z,70.55
2022-09-28T00:37:21.896Z,70.79
2022-09-28T00:39:49.472Z,70.31
2022-09-28T00:42:20.263Z,71.02
2022-09-28T00:44:49.905Z,70.17
2022-09-28T00:47:43.662Z,70.10
2022-09-28T00:50:21.920Z,69.89
2022-09-28T00:52:54.206Z,69.75
2022-09-28T00:55:26.491Z,70.03
2022-09-28T00:57:58.952Z,70.85
2022-09-28T01:00:28.658Z,70.53
2022-09-28T01:02:56.541Z,70.72
2022-09-28T01:05:25.625Z,70.69
2022-09-28T01:07:53.597Z,69.68
2022-09-28T01:10:21.148Z,70.43
2022-09-28T01:12:48.643Z,70.86
2022-09-28T01:15:16.634Z,69.78
2022-09-28T01:17:58.307Z,70.38
2022-09-28T01:20:49.925Z,70.58
2022-09-28T01:23:36.904Z,70.18
2022-09-28T01:26:39.657Z,70.26
2022-09-28T01:29:17.223Z,70.06
2022-09-28T01:31:50.567Z,69.91
2022-09-28T01:34:25.322Z,69.45
2022-09-28T01:36:56.297Z,70.04
2022-09-28T01:39:29.687Z,69.42
2022-09-28T01:42:02.973Z,69.87
2022-09-28T01:44:33.758Z,69.82
2022-09-28T01:47:04.267Z,70.49
2022-09-28T01:49:36.154Z,70.13
2022-09-28T01:52:08.788Z,70.49
2022-09-28T01:54:42.927Z,71.09
2022-09-28T01:57:18.461Z,70.18
2022-09-28T01:59:54.062Z,69.97
2022-09-28T02:02:27.639Z,70.63
2022-09-28T02:04:58.997Z,69.67
2022-09-28T02:07:34.637Z,70.30
2022-09-28T02:10:09.769Z,69.72
2022-09-28T02:12:43.572Z,69.41
2022-09-28T02:15:15.985Z,69.14
2022-09-28T02:17:43.953Z,69.71
2022-09-28T02:20:12.117Z,69.55
2022-09-28T02:22:44.647Z,69.59
2022-09-28T02:25:18.654Z,70.22
2022-09-28T02:27:55.005Z,70.18
2022-09-28T02:30:22.742Z,69.63
2022-09-28T02:32:53.745Z,69.79
2022-09-28T02:35:21.762Z,69.69
2022-09-28T02:37:51.010Z,70.47
2022-09-28T02:40:21.306Z,70.82
2022-09-28T02:43:00.209Z,70.38
2022-09-28T02:45:42.222Z,70.79
2022-09-28T02:48:31.458Z,70.21
2022-09-28T02:51:19.906Z,70.02
2022-09-28T02:54:01.579Z,69.24
2022-09-28T02:57:00.190Z,69.35
2022-09-28T02:59:42.651Z,68.28
2022-09-28T03:02:20.518Z,68.89
2022-09-28T03:05:02.104Z,70.88
2022-09-28T03:07:34.743Z,71.16
2022-09-28T03:10:09.075Z,70.48
2022-09-28T03:12:38.371Z,70.57
2022-09-28T03:15:14.668Z,70.50
2022-09-28T03:17:42.182Z,68.82
2022-09-28T03:20:11.342Z,70.23
2022-09-28T03:22:39.933Z,70.56
2022-09-28T03:25:08.872Z,70.64
2022-09-28T03:27:36.465Z,69.95
2022-09-28T03:30:04.519Z,70.61
2022-09-28T03:32:33.365Z,69.50
2022-09-28T03:35:01.072Z,69.48
2022-09-28T03:37:28.979Z,69.31
2022-09-28T03:39:56.481Z,69.81
2022-09-28T03:42:23.996Z,69.40
2022-09-28T03:44:51.506Z,69.61
2022-09-28T03:47:19.593Z,69.64
2022-09-28T03:49:48.510Z,70.42
2022-09-28T03:52:16.384Z,69.49
2022-09-28T03:54:48.917Z,68.59
2022-09-28T03:57:16.820Z,68.96
2022-09-28T03:59:44.543Z,68.49
2022-09-28T04:02:12.091Z,69.42
2022-09-28T04:04:39.634Z,69.18
2022-09-28T04:07:08.491Z,68.85
2022-09-28T04:09:36.007Z,69.83
2022-09-28T04:12:04.578Z,69.19
2022-09-28T04:14:32.345Z,69.38
2022-09-28T04:16:59.830Z,69.13
2022-09-28T04:19:27.708Z,69.27
2022-09-28T04:21:55.248Z,69.09
2022-09-28T04:24:24.163Z,69.25
2022-09-28T04:26:51.801Z,69.40
2022-09-28T04:29:18.859Z,69.35
2022-09-28T04:31:49.511Z,69.10
2022-09-28T04:34:18.811Z,68.48
2022-09-28T04:36:46.713Z,69.89
2022-09-28T04:39:15.371Z,69.52
2022-09-28T04:41:44.555Z,69.71
2022-09-28T04:44:12.117Z,69.46
2022-09-28T04:46:39.609Z,69.84
2022-09-28T04:49:07.159Z,69.98
2022-09-28T04:51:34.728Z,70.24
2022-09-28T04:54:02.484Z,70.65
2022-09-28T04:56:30.015Z,70.34
2022-09-28T04:58:58.884Z,70.20
2022-09-28T05:01:26.479Z,69.80
2022-09-28T05:03:54.043Z,69.89
2022-09-28T05:06:22.585Z,69.55
2022-09-28T05:08:50.116Z,69.55
2022-09-28T05:11:19.755Z,70.07
2022-09-28T05:13:48.409Z,69.51
2022-09-28T05:16:20.215Z,69.62
2022-09-28T05:18:48.162Z,69.59
2022-09-28T05:21:19.420Z,69.28
2022-09-28T05:23:47.756Z,69.46
2022-09-28T05:26:15.321Z,69.30
2022-09-28T05:28:43.056Z,68.78
2022-09-28T05:31:10.761Z,69.04
2022-09-28T05:33:39.642Z,68.91
2022-09-28T05:36:10.258Z,69.01
2022-09-28T05:38:37.995Z,68.93
2022-09-28T05:41:06.733Z,69.88
2022-09-28T05:43:35.043Z,70.28
2022-09-28T05:46:02.687Z,69.62
2022-09-28T05:48:30.445Z,70.00
2022-09-28T05:50:59.595Z,69.88
2022-09-28T05:53:27.239Z,69.26
2022-09-28T05:55:58.900Z,68.98
2022-09-28T05:58:26.719Z,68.78
2022-09-28T06:00:55.981Z,68.75
2022-09-28T06:03:23.563Z,69.19
2022-09-28T06:05:51.536Z,69.23
2022-09-28T06:08:20.512Z,68.71
2022-09-28T06:10:48.077Z,68.36
2022-09-28T06:13:15.584Z,67.84
2022-09-28T06:15:44.768Z,68.21
2022-09-28T06:18:14.729Z,67.89
2022-09-28T06:20:42.737Z,68.63
2022-09-28T06:23:10.304Z,67.74
2022-09-28T06:25:39.755Z,68.61
2022-09-28T06:28:10.439Z,68.50
2022-09-28T06:30:38.993Z,68.39
2022-09-28T06:33:08.387Z,67.46
2022-09-28T06:35:36.371Z,68.07
2022-09-28T06:38:03.944Z,68.79
2022-09-28T06:40:31.687Z,67.77
2022-09-28T06:43:02.182Z,68.12
2022-09-28T06:45:31.252Z,69.41
2022-09-28T06:48:00.915Z,69.42
2022-09-28T06:50:32.148Z,68.66
2022-09-28T06:53:00.508Z,69.73
2022-09-28T06:55:29.118Z,69.30
2022-09-28T06:58:02.425Z,68.40
2022-09-28T07:00:32.838Z,68.90
2022-09-28T07:03:00.525Z,69.48
2022-09-28T07:05:29.289Z,69.42
2022-09-28T07:07:57.470Z,68.80
2022-09-28T07:10:25.990Z,68.94
2022-09-28T07:12:53.523Z,69.15
2022-09-28T07:15:22.986Z,70.04
2022-09-28T07:18:00.683Z,70.08
2022-09-28T07:20:30.888Z,70.58
2022-09-28T07:23:12.516Z,69.65
2022-09-28T07:25:45.381Z,70.71
2022-09-28T07:28:13.385Z,69.65
2022-09-28T07:30:44.146Z,70.89
2022-09-28T07:33:14.319Z,69.76
2022-09-28T07:35:42.884Z,69.69
2022-09-28T07:38:11.999Z,70.70
2022-09-28T07:40:57.193Z,70.63
2022-09-28T07:43:24.760Z,70.94
2022-09-28T07:45:55.581Z,70.59
2022-09-28T07:48:23.955Z,70.61
2022-09-28T07:50:52.220Z,71.17
2022-09-28T07:53:20.141Z,70.36
2022-09-28T07:55:52.116Z,70.55
2022-09-28T07:58:20.608Z,70.35
2022-09-28T08:00:49.019Z,69.45
2022-09-28T08:03:19.024Z,70.20
2022-09-28T08:05:47.337Z,69.65
2022-09-28T08:08:15.189Z,69.12
2022-09-28T08:10:46.554Z,69.87
2022-09-28T08:13:16.235Z,70.24
2022-09-28T08:15:43.786Z,70.77
2022-09-28T08:18:11.337Z,69.95
2022-09-28T08:20:57.488Z,71.11
2022-09-28T08:23:25.373Z,70.69
2022-09-28T08:25:53.967Z,70.15
2022-09-28T08:28:23.043Z,71.37
2022-09-28T08:30:51.063Z,70.33
2022-09-28T08:33:21.278Z,70.73
2022-09-28T08:35:57.397Z,70.35
2022-09-28T08:38:25.206Z,70.91
2022-09-28T08:41:04.960Z,70.05
2022-09-28T08:43:46.706Z,70.23
2022-09-28T08:46:22.706Z,69.36
2022-09-28T08:49:20.427Z,69.84
2022-09-28T08:51:50.645Z,69.85
2022-09-28T08:54:29.778Z,69.83
2022-09-28T08:57:02.979Z,69.77
2022-09-28T08:59:39.552Z,70.73
2022-09-28T09:02:18.103Z,70.33
2022-09-28T09:04:45.869Z,69.76
2022-09-28T09:07:27.882Z,69.51
2022-09-28T09:10:06.657Z,70.08
2022-09-28T09:12:45.137Z,68.83
2022-09-28T09:15:48.073Z,68.15
2022-09-28T09:18:26.085Z,69.12
2022-09-28T09:20:57.364Z,69.03
2022-09-28T09:23:37.145Z,69.37
2022-09-28T09:26:15.092Z,67.78
2022-09-28T09:29:18.414Z,69.16
2022-09-28T09:32:07.036Z,67.51
2022-09-28T09:34:57.845Z,68.04
2022-09-28T09:37:49.655Z,68.06
2022-09-28T09:40:30.303Z,67.13
2022-09-28T09:43:09.414Z,68.09
2022-09-28T09:45:50.659Z,67.20
2022-09-28T09:48:25.073Z,66.83
2022-09-28T09:50:57.285Z,66.43
2022-09-28T09:53:28.734Z,66.89
2022-09-28T09:56:05.015Z,67.37
2022-09-28T09:58:37.284Z,67.28
2022-09-28T10:01:08.886Z,66.16
2022-09-28T10:03:40.883Z,65.57
2022-09-28T10:06:12.506Z,66.09
2022-09-28T10:08:45.270Z,65.52
2022-09-28T10:11:18.021Z,64.45
2022-09-28T10:13:48.441Z,65.10
2022-09-28T10:16:17.262Z,63.84
2022-09-28T10:18:44.930Z,63.85
2022-09-28T10:21:14.208Z,64.38
2022-09-28T10:23:42.643Z,64.40
2022-09-28T10:26:25.340Z,64.46
2022-09-28T10:28:56.501Z,63.73
2022-09-28T10:31:39.011Z,63.37
2022-09-28T10:34:07.982Z,62.99
2022-09-28T10:36:47.677Z,63.28
2022-09-28T10:39:29.903Z,63.38
2022-09-28T10:42:03.454Z,63.47
2022-09-28T10:44:34.612Z,63.89
2022-09-28T10:47:04.124Z,62.31
2022-09-28T10:49:45.816Z,62.61
2022-09-28T10:52:33.258Z,63.05
2022-09-28T10:55:01.641Z,62.45
2022-09-28T10:57:34.993Z,62.80
2022-09-28T11:00:03.291Z,63.67
2022-09-28T11:02:36.012Z,63.08
2022-09-28T11:05:07.512Z,63.15
2022-09-28T11:07:46.996Z,63.75
2022-09-28T11:10:21.976Z,62.64
2022-09-28T11:12:52.322Z,63.43
2022-09-28T11:15:22.199Z,62.98
2022-09-28T11:17:49.735Z,62.73
2022-09-28T11:20:35.847Z,62.99
2022-09-28T11:23:20.337Z,61.78
2022-09-28T11:25:59.451Z,61.78
2022-09-28T11:28:32.662Z,61.41
2022-09-28T11:31:01.900Z,61.64
2022-09-28T11:33:33.284Z,61.04
2022-09-28T11:36:17.412Z,60.83
2022-09-28T11:38:54.865Z,61.13
2022-09-28T11:41:36.118Z,60.71
2022-09-28T11:44:19.424Z,59.84
2022-09-28T11:46:55.444Z,60.09
2022-09-28T11:49:31.919Z,59.91
2022-09-28T11:52:04.148Z,59.24
2022-09-28T11:54:39.226Z,58.82
2022-09-28T11:57:12.993Z,59.17
2022-09-28T11:59:52.377Z,59.49
2022-09-28T12:02:25.733Z,59.58
2022-09-28T12:04:57.805Z,59.35
2022-09-28T12:07:31.090Z,59.03
2022-09-28T12:10:04.110Z,58.32
2022-09-28T12:12:35.646Z,57.95
2022-09-28T12:15:16.158Z,58.83
2022-09-28T12:17:49.477Z,57.89
2022-09-28T12:20:22.262Z,58.14
2022-09-28T12:23:06.003Z,58.22
2022-09-28T12:25:41.781Z,59.10
2022-09-28T12:28:19.277Z,59.78
2022-09-28T12:30:50.317Z,59.97
2022-09-28T12:33:17.915Z,60.21
2022-09-28T12:36:07.608Z,60.25
2022-09-28T12:39:14.865Z,60.98
2022-09-28T12:41:55.759Z,61.87
2022-09-28T12:44:36.757Z,61.20
2022-09-28T12:47:28.112Z,61.16
2022-09-28T12:53:19.285Z,60.86
2022-09-28T12:55:59.057Z,61.11
2022-09-28T12:58:43.461Z,61.47
2022-09-28T13:01:29.821Z,61.77
2022-09-28T13:04:13.469Z,61.83
2022-09-28T13:06:50.134Z,61.18
2022-09-28T13:09:21.603Z,61.25
2022-09-28T13:12:25.546Z,61.23
2022-09-28T13:15:31.980Z,60.95
2022-09-28T13:18:08.029Z,60.93
2022-09-28T13:21:01.090Z,59.57
2022-09-28T13:23:31.519Z,59.31
2022-09-28T13:26:09.695Z,59.50
2022-09-28T13:28:38.836Z,59.40
2022-09-28T13:31:07.298Z,59.11
2022-09-28T13:33:39.406Z,57.33
2022-09-28T13:36:39.422Z,57.39
2022-09-28T13:39:56.384Z,58.03
2022-09-28T13:42:33.178Z,58.18
2022-09-28T13:45:32.298Z,57.88
2022-09-28T13:48:15.910Z,58.37
2022-09-28T13:51:10.452Z,58.57
2022-09-28T13:53:54.106Z,58.67
2022-09-28T13:56:29.727Z,58.22
2022-09-28T13:59:01.276Z,58.75
2022-09-28T14:01:33.030Z,58.67
2022-09-28T14:04:14.723Z,58.65
2022-09-28T14:06:55.610Z,58.58
2022-09-28T14:09:41.800Z,57.13
2022-09-28T14:12:30.512Z,56.71
2022-09-28T14:14:58.195Z,55.14
2022-09-28T14:17:54.733Z,55.52
2022-09-28T14:20:27.159Z,54.09
2022-09-28T14:23:33.250Z,53.71
2022-09-28T14:26:15.760Z,55.30
2022-09-28T14:28:53.729Z,54.32
2022-09-28T14:31:27.302Z,55.71
2022-09-28T14:33:58.824Z,56.38
2022-09-28T14:36:47.223Z,56.86
2022-09-28T14:39:41.062Z,57.07
2022-09-28T14:42:15.608Z,57.26
2022-09-28T14:45:19.747Z,57.21
2022-09-28T14:48:12.448Z,57.06
2022-09-28T14:50:40.345Z,57.30
2022-09-28T14:53:13.376Z,57.37
2022-09-28T14:55:50.149Z,57.86
2022-09-28T14:58:24.898Z,58.57
2022-09-28T15:01:02.393Z,58.36
2022-09-28T15:03:33.999Z,58.57
2022-09-28T15:06:01.784Z,59.11
2022-09-28T15:08:39.791Z,58.97
2022-09-28T15:11:11.814Z,59.16
2022-09-28T15:13:41.468Z,59.25
2022-09-28T15:16:12.605Z,59.72
2022-09-28T15:19:01.376Z,59.60
2022-09-28T15:21:35.582Z,59.43
2022-09-28T15:24:03.281Z,59.72
2022-09-28T15:26:32.402Z,59.98
2022-09-28T15:29:03.924Z,59.54
2022-09-28T15:31:35.990Z,60.54
2022-09-28T15:34:20.900Z,60.29
2022-09-28T15:36:49.835Z,60.34
2022-09-28T15:39:33.902Z,60.87
2022-09-28T15:42:02.158Z,60.97
2022-09-28T15:44:33.299Z,60.88
2022-09-28T15:47:10.883Z,61.24
2022-09-28T15:49:42.137Z,61.52
2022-09-28T15:52:24.834Z,61.09
2022-09-28T15:54:52.711Z,60.94
2022-09-28T15:57:36.673Z,61.07
2022-09-28T16:00:08.638Z,60.47
2022-09-28T16:02:36.578Z,60.30
2022-09-28T16:05:05.464Z,59.50
2022-09-28T16:07:38.323Z,59.75
2022-09-28T16:10:33.506Z,58.86
2022-09-28T16:13:14.173Z,60.06
2022-09-28T16:15:43.495Z,59.68
2022-09-28T16:18:21.951Z,59.45
2022-09-28T16:20:51.972Z,60.21
2022-09-28T16:23:24.156Z,59.56
2022-09-28T16:25:55.706Z,60.80
2022-09-28T16:28:48.810Z,60.96
2022-09-28T16:31:28.186Z,60.50
2022-09-28T16:33:58.135Z,60.37
2022-09-28T16:36:29.761Z,61.13
2022-09-28T16:38:57.555Z,60.48
2022-09-28T16:41:28.856Z,61.79
2022-09-28T16:44:00.888Z,62.36
2022-09-28T16:46:34.163Z,61.65
2022-09-28T16:49:03.009Z,61.62
2022-09-28T16:51:30.579Z,62.80
2022-09-28T16:54:18.798Z,61.96
2022-09-28T16:56:46.343Z,62.93
2022-09-28T16:59:14.118Z,62.76
2022-09-28T17:01:43.725Z,62.72
2022-09-28T17:04:12.005Z,62.24
2022-09-28T17:06:39.734Z,63.34
2022-09-28T17:09:07.862Z,63.74
2022-09-28T17:11:35.682Z,62.88
2022-09-28T17:14:03.599Z,63.78
2022-09-28T17:17:02.363Z,63.89
2022-09-28T17:19:24.010Z,64.12
2022-09-28T17:21:52.083Z,64.97
2022-09-28T17:24:20.291Z,64.60
2022-09-28T17:26:50.336Z,64.34
2022-09-28T17:29:18.524Z,63.98
2022-09-28T17:31:47.441Z,64.00
2022-09-28T17:34:16.833Z,64.32
2022-09-28T17:36:46.408Z,64.87
2022-09-28T17:39:15.334Z,64.94
2022-09-28T17:41:42.853Z,63.55
2022-09-28T17:44:10.352Z,63.74
2022-09-28T17:46:40.614Z,63.87
2022-09-28T17:49:11.186Z,64.41
2022-09-28T17:51:39.577Z,64.13
2022-09-28T17:54:09.533Z,64.64
2022-09-28T17:56:37.846Z,65.05
2022-09-28T17:59:07.270Z,64.13
2022-09-28T18:01:38.776Z,64.97
2022-09-28T18:04:09.299Z,64.61
2022-09-28T18:06:37.310Z,64.75
2022-09-28T18:09:06.091Z,64.06
2022-09-28T18:11:35.333Z,63.92
2022-09-28T18:14:03.019Z,64.84
2022-09-28T18:16:31.198Z,64.41
2022-09-28T18:18:59.404Z,63.50
2022-09-28T18:21:26.917Z,63.02
2022-09-28T18:23:54.411Z,62.97
2022-09-28T18:26:21.913Z,63.08
2022-09-28T18:28:54.875Z,62.94
2022-09-28T18:31:22.593Z,63.75
2022-09-28T18:33:50.261Z,63.18
2022-09-28T18:36:18.016Z,64.29
2022-09-28T18:38:45.542Z,63.98
2022-09-28T18:41:15.486Z,64.50
2022-09-28T18:43:43.837Z,64.21
2022-09-28T18:46:12.804Z,65.03
2022-09-28T18:48:41.532Z,65.42
2022-09-28T18:51:09.787Z,65.15
2022-09-28T18:53:37.666Z,65.48
2022-09-28T18:56:09.661Z,64.74
2022-09-28T18:58:38.583Z,65.80
2022-09-28T19:01:28.870Z,64.02
2022-09-28T19:04:01.257Z,64.28
2022-09-28T19:06:29.697Z,64.46
2022-09-28T19:08:57.780Z,65.02
2022-09-28T19:11:26.303Z,64.56
2022-09-28T19:13:54.633Z,64.54
2022-09-28T19:16:25.382Z,64.09
2022-09-28T19:18:53.642Z,64.97
2022-09-28T19:21:22.707Z,63.98
2022-09-28T19:23:51.978Z,64.17
2022-09-28T19:26:22.078Z,63.20
2022-09-28T19:28:49.918Z,63.28
2022-09-28T19:31:18.596Z,63.06
2022-09-28T19:33:47.060Z,63.58
2022-09-28T19:36:18.174Z,64.73
2022-09-28T19:38:47.302Z,64.07
2022-09-28T19:41:39.465Z,63.38
2022-09-28T19:44:12.994Z,64.15
2022-09-28T19:46:40.903Z,65.07
2022-09-28T19:49:10.911Z,64.68
2022-09-28T19:51:46.935Z,64.72
2022-09-28T19:54:33.138Z,65.07
2022-09-28T19:57:07.757Z,64.95
2022-09-28T19:59:36.419Z,64.96
2022-09-28T20:02:04.514Z,65.02
2022-09-28T20:04:32.034Z,65.18
2022-09-28T20:06:59.580Z,64.83
2022-09-28T20:09:28.446Z,64.23
2022-09-28T20:11:55.953Z,63.80
2022-09-28T20:14:25.880Z,64.24
2022-09-28T20:16:55.877Z,64.20
2022-09-28T20:19:23.387Z,64.27
2022-09-28T20:21:51.512Z,64.48
2022-09-28T20:24:19.005Z,66.15
2022-09-28T20:26:49.462Z,66.23
2022-09-28T20:29:17.366Z,64.70
2022-09-28T20:31:45.568Z,66.10
2022-09-28T20:34:13.780Z,65.82
2022-09-28T20:36:42.404Z,65.13
2022-09-28T20:39:11.661Z,65.53
2022-09-28T20:41:39.358Z,65.90
2022-09-28T20:44:08.244Z,66.10
2022-09-28T20:46:36.346Z,66.25
2022-09-28T20:49:04.833Z,66.30
2022-09-28T20:51:32.722Z,66.25
2022-09-28T20:54:00.682Z,67.27
2022-09-28T20:56:30.442Z,66.16
2022-09-28T20:58:58.113Z,66.32
2022-09-28T21:01:29.349Z,66.54
2022-09-28T21:03:58.493Z,65.42
2022-09-28T21:06:28.437Z,65.29
2022-09-28T21:08:56.050Z,66.03
2022-09-28T21:11:25.341Z,66.33
2022-09-28T21:13:54.435Z,65.66
2022-09-28T21:16:22.441Z,66.48
2022-09-28T21:18:51.255Z,65.79
2022-09-28T21:21:20.985Z,65.07
2022-09-28T21:23:48.948Z,66.06
2022-09-28T21:26:24.516Z,65.85
2022-09-28T21:28:54.931Z,65.40
2022-09-28T21:31:28.455Z,65.37
2022-09-28T21:33:58.546Z,65.19
2022-09-28T21:36:26.540Z,65.62
2022-09-28T21:38:54.977Z,64.75
2022-09-28T21:41:22.573Z,65.88
2022-09-28T21:43:50.137Z,66.24
2022-09-28T21:46:18.421Z,65.15
2022-09-28T21:48:46.041Z,66.07
2022-09-28T21:51:16.155Z,65.95
2022-09-28T21:53:43.819Z,65.64
2022-09-28T21:56:13.204Z,66.59
2022-09-28T21:58:41.055Z,66.03
2022-09-28T22:01:13.001Z,65.19
2022-09-28T22:03:40.594Z,65.64
2022-09-28T22:06:09.097Z,65.32
2022-09-28T22:08:38.936Z,65.81
2022-09-28T22:11:07.942Z,64.57
2022-09-28T22:13:37.397Z,64.24
2022-09-28T22:16:04.944Z,65.44
2022-09-28T22:18:34.008Z,66.61
2022-09-28T22:21:02.865Z,66.18
2022-09-28T22:23:30.988Z,66.45
2022-09-28T22:26:01.088Z,65.61
2022-09-28T22:28:29.044Z,65.36
2022-09-28T22:30:57.065Z,66.69
2022-09-28T22:33:25.105Z,66.30
2022-09-28T22:35:52.850Z,66.88
2022-09-28T22:38:21.291Z,66.72
2022-09-28T22:40:49.114Z,66.07
2022-09-28T22:43:19.700Z,66.55
2022-09-28T22:45:47.666Z,67.08
2022-09-28T22:48:15.197Z,66.69
2022-09-28T22:50:49.752Z,66.82
2022-09-28T22:53:17.405Z,66.17
2022-09-28T22:55:45.279Z,66.35
2022-09-28T22:58:13.448Z,66.84
2022-09-28T23:00:42.995Z,65.79
2022-09-28T23:03:10.537Z,66.29
2022-09-28T23:05:38.131Z,66.13
2022-09-28T23:08:05.660Z,66.63
2022-09-28T23:10:33.128Z,65.17
2022-09-28T23:13:00.607Z,64.69
2022-09-28T23:15:28.896Z,65.93
2022-09-28T23:17:57.791Z,66.62
2022-09-28T23:20:25.439Z,66.53
2022-09-28T23:22:52.930Z,65.88
2022-09-28T23:25:20.817Z,66.54
2022-09-28T23:27:49.458Z,66.78
2022-09-28T23:30:19.758Z,65.90
2022-09-28T23:32:47.339Z,66.04
2022-09-28T23:35:16.270Z,65.91
2022-09-28T23:37:43.755Z,66.39
2022-09-28T23:40:11.544Z,66.09
2022-09-28T23:42:39.034Z,66.00
2022-09-28T23:45:07.243Z,66.08
2022-09-28T23:47:37.224Z,65.53
2022-09-28T23:50:05.167Z,65.80
2022-09-28T23:52:34.123Z,64.20
2022-09-28T23:55:01.614Z,64.14
2022-09-28T23:57:29.129Z,65.07
2022-09-28T23:59:56.595Z,64.89
